createdAt,value
2019-04-29T00:00:03.255Z,38.70
2019-04-29T00:02:36.953Z,38.37
2019-04-29T00:05:08.815Z,38.00
2019-04-29T00:07:41.296Z,32.90
2019-04-29T00:10:16.874Z,34.30
2019-04-29T00:12:47.869Z,38.07
2019-04-29T00:15:20.478Z,38.93
2019-04-29T00:17:57.437Z,36.45
2019-04-29T00:20:30.879Z,37.43
2019-04-29T00:23:01.878Z,36.47
2019-04-29T00:25:34.328Z,35.90
2019-04-29T00:28:05.363Z,39.33
2019-04-29T00:30:36.399Z,40.33
2019-04-29T00:33:07.409Z,39.57
2019-04-29T00:35:39.428Z,40.20
2019-04-29T00:38:28.397Z,38.00
2019-04-29T00:41:16.240Z,33.57
2019-04-29T00:44:00.657Z,40.83
2019-04-29T00:46:31.803Z,36.27
2019-04-29T00:49:02.912Z,34.90
2019-04-29T00:51:34.687Z,34.73
2019-04-29T00:54:12.241Z,36.87
2019-04-29T00:56:43.070Z,32.80
2019-04-29T00:59:14.152Z,34.83
2019-04-29T01:01:45.188Z,33.98
2019-04-29T01:04:17.635Z,36.10
2019-04-29T01:06:48.711Z,32.27
2019-04-29T01:09:20.323Z,36.30
2019-04-29T01:11:51.301Z,31.70
2019-04-29T01:14:22.432Z,42.37
2019-04-29T01:16:53.539Z,32.13
2019-04-29T01:19:27.576Z,34.40
2019-04-29T01:21:58.623Z,33.60
2019-04-29T01:24:29.639Z,34.33
2019-04-29T01:27:03.165Z,36.77
2019-04-29T01:29:34.789Z,43.10
2019-04-29T01:32:07.906Z,39.63
2019-04-29T01:34:43.508Z,36.63
2019-04-29T01:37:14.575Z,36.20
2019-04-29T01:39:50.229Z,40.90
2019-04-29T01:42:22.852Z,36.37
2019-04-29T01:44:53.866Z,35.87
2019-04-29T01:47:24.908Z,36.07
2019-04-29T01:49:55.917Z,30.33
2019-04-29T01:52:26.935Z,31.17
2019-04-29T01:54:57.906Z,29.80
2019-04-29T01:57:28.861Z,27.73
2019-04-29T01:59:59.869Z,29.13
2019-04-29T02:02:30.841Z,24.87
2019-04-29T02:05:02.817Z,31.00
2019-04-29T02:07:33.833Z,25.03
2019-04-29T02:10:09.986Z,31.47
2019-04-29T02:12:41.088Z,24.30
2019-04-29T02:15:12.111Z,25.70
2019-04-29T02:17:43.143Z,35.80
2019-04-29T02:20:14.182Z,25.43
2019-04-29T02:22:51.307Z,28.20
2019-04-29T02:25:28.225Z,24.37
2019-04-29T02:27:59.260Z,24.13
2019-04-29T02:30:45.366Z,27.40
2019-04-29T02:33:16.385Z,26.57
2019-04-29T02:35:47.384Z,26.03
2019-04-29T02:38:20.022Z,26.00
2019-04-29T02:40:52.664Z,27.83
2019-04-29T02:43:25.255Z,27.10
2019-04-29T02:45:57.701Z,25.67
2019-04-29T02:48:34.459Z,26.37
2019-04-29T02:51:02.973Z,26.87
2019-04-29T02:53:37.340Z,22.67
2019-04-29T02:56:08.365Z,23.40
2019-04-29T02:58:45.990Z,23.60
2019-04-29T03:01:26.130Z,22.90
2019-04-29T03:04:16.861Z,23.67
2019-04-29T03:06:48.703Z,25.17
2019-04-29T03:09:20.693Z,23.73
2019-04-29T03:11:51.730Z,29.60
2019-04-29T03:14:23.105Z,30.43
2019-04-29T03:16:54.287Z,34.50
2019-04-29T03:19:26.935Z,27.33
2019-04-29T03:21:59.786Z,62.97
2019-04-29T03:24:31.758Z,38.13
2019-04-29T03:27:03.122Z,23.83
2019-04-29T03:29:34.203Z,21.77
2019-04-29T03:32:05.200Z,23.37
2019-04-29T03:34:37.601Z,30.37
2019-04-29T03:37:08.528Z,41.87
2019-04-29T03:39:40.514Z,36.60
2019-04-29T03:42:11.494Z,33.13
2019-04-29T03:44:45.557Z,32.83
2019-04-29T03:47:18.972Z,50.80
2019-04-29T03:49:50.945Z,24.53
2019-04-29T03:52:22.151Z,30.80
2019-04-29T03:54:53.226Z,32.83
2019-04-29T03:57:24.326Z,39.23
2019-04-29T03:59:57.059Z,58.03
2019-04-29T04:02:32.942Z,33.00
2019-04-29T04:05:08.413Z,37.00
2019-04-29T04:07:41.789Z,48.83
2019-04-29T04:10:14.005Z,40.90
2019-04-29T04:12:45.075Z,49.53
2019-04-29T04:15:16.109Z,54.83
2019-04-29T04:17:48.670Z,26.30
2019-04-29T04:20:19.887Z,46.87
2019-04-29T04:22:50.880Z,32.43
2019-04-29T04:25:22.097Z,40.03
2019-04-29T04:27:53.032Z,35.70
2019-04-29T04:30:24.070Z,34.27
2019-04-29T04:32:56.591Z,34.57
2019-04-29T04:35:27.622Z,29.90
2019-04-29T04:37:58.801Z,30.20
2019-04-29T04:40:35.214Z,30.53
2019-04-29T04:43:06.344Z,25.52
2019-04-29T04:45:37.435Z,24.87
2019-04-29T04:48:08.443Z,25.30
2019-04-29T04:50:39.481Z,23.35
2019-04-29T04:53:10.693Z,20.90
2019-04-29T04:55:44.166Z,20.77
2019-04-29T04:58:16.615Z,22.90
2019-04-29T05:00:47.573Z,20.90
2019-04-29T05:03:18.582Z,19.98
2019-04-29T05:05:49.614Z,26.50
2019-04-29T05:08:21.485Z,32.42
2019-04-29T05:10:53.433Z,30.82
2019-04-29T05:13:28.489Z,24.80
2019-04-29T05:15:57.371Z,21.00
2019-04-29T05:18:28.307Z,18.65
2019-04-29T05:20:59.336Z,11.75
2019-04-29T05:23:31.920Z,9.40
2019-04-29T05:26:03.893Z,8.15
2019-04-29T05:28:38.800Z,8.70
2019-04-29T05:31:09.832Z,9.68
2019-04-29T05:33:40.819Z,10.08
2019-04-29T05:36:13.431Z,7.45
2019-04-29T05:38:47.605Z,9.43
2019-04-29T05:41:21.504Z,9.28
2019-04-29T05:43:55.502Z,8.08
2019-04-29T05:46:43.435Z,8.70
2019-04-29T05:49:16.000Z,7.53
2019-04-29T05:51:51.478Z,6.87
2019-04-29T05:54:26.911Z,5.65
2019-04-29T05:56:56.941Z,12.78
2019-04-29T05:59:27.857Z,4.90
2019-04-29T06:01:58.878Z,5.55
2019-04-29T06:04:31.550Z,6.53
2019-04-29T06:07:02.562Z,7.87
2019-04-29T06:09:34.387Z,4.65
2019-04-29T06:12:09.319Z,6.22
2019-04-29T06:14:41.754Z,5.17
2019-04-29T06:17:14.289Z,5.97
2019-04-29T06:19:45.283Z,6.80
2019-04-29T06:22:16.304Z,4.22
2019-04-29T06:24:47.293Z,5.90
2019-04-29T06:27:19.259Z,7.60
2019-04-29T06:29:50.287Z,4.25
2019-04-29T06:32:24.856Z,10.20
2019-04-29T06:34:54.057Z,7.12
2019-04-29T06:37:26.685Z,4.55
2019-04-29T06:40:00.793Z,7.47
2019-04-29T06:42:33.593Z,5.22
2019-04-29T06:45:06.543Z,6.47
2019-04-29T06:47:37.650Z,8.68
2019-04-29T06:50:09.475Z,5.58
2019-04-29T06:52:41.967Z,4.50
2019-04-29T06:55:14.565Z,6.90
2019-04-29T06:57:46.403Z,4.72
2019-04-29T07:00:22.217Z,8.10
2019-04-29T07:02:53.272Z,6.00
2019-04-29T07:05:24.347Z,5.92
2019-04-29T07:07:56.973Z,7.28
2019-04-29T07:10:31.198Z,5.60
2019-04-29T07:13:06.261Z,5.05
2019-04-29T07:15:37.278Z,5.28
2019-04-29T07:18:08.385Z,6.22
2019-04-29T07:20:43.481Z,4.60
2019-04-29T07:23:14.572Z,5.65
2019-04-29T07:25:45.581Z,4.00
2019-04-29T07:28:18.460Z,4.83
2019-04-29T07:31:01.138Z,4.55
2019-04-29T07:33:24.427Z,5.97
2019-04-29T07:35:55.229Z,5.33
2019-04-29T07:38:40.580Z,6.10
2019-04-29T07:41:02.062Z,4.45
2019-04-29T07:43:38.546Z,6.78
2019-04-29T07:46:21.319Z,4.60
2019-04-29T07:49:01.262Z,6.03
2019-04-29T07:51:27.988Z,4.33
2019-04-29T07:54:00.609Z,3.98
2019-04-29T07:56:32.441Z,3.87
2019-04-29T07:59:06.718Z,3.45
2019-04-29T08:01:37.913Z,8.98
2019-04-29T08:04:09.168Z,6.53
2019-04-29T08:06:42.969Z,5.70
2019-04-29T08:09:13.979Z,5.67
2019-04-29T08:11:47.627Z,6.62
2019-04-29T08:14:21.963Z,6.25
2019-04-29T08:16:52.995Z,3.52
2019-04-29T08:19:29.602Z,7.95
2019-04-29T08:21:59.934Z,7.92
2019-04-29T08:24:31.008Z,5.92
2019-04-29T08:27:02.011Z,5.40
2019-04-29T08:29:35.848Z,6.80
2019-04-29T08:32:08.124Z,7.05
2019-04-29T08:34:40.953Z,3.50
2019-04-29T08:37:12.133Z,6.47
2019-04-29T08:39:43.226Z,5.62
2019-04-29T08:42:15.806Z,5.87
2019-04-29T08:44:59.751Z,5.65
2019-04-29T08:47:31.640Z,4.87
2019-04-29T08:50:02.120Z,3.65
2019-04-29T08:52:34.549Z,8.30
2019-04-29T08:55:08.765Z,4.55
2019-04-29T08:57:39.772Z,6.50
2019-04-29T09:00:11.957Z,6.05
2019-04-29T09:02:47.135Z,5.95
2019-04-29T09:05:15.874Z,6.72
2019-04-29T09:07:46.897Z,5.92
2019-04-29T09:10:19.966Z,6.55
2019-04-29T09:12:52.488Z,5.15
2019-04-29T09:15:24.406Z,6.03
2019-04-29T09:17:55.816Z,5.45
2019-04-29T09:20:26.886Z,8.78
2019-04-29T09:22:59.487Z,4.90
2019-04-29T09:25:32.126Z,5.22
2019-04-29T09:28:04.739Z,7.12
2019-04-29T09:30:38.690Z,4.15
2019-04-29T09:33:13.218Z,7.78
2019-04-29T09:35:42.266Z,7.45
2019-04-29T09:38:13.310Z,5.40
2019-04-29T09:40:54.468Z,4.97
2019-04-29T09:43:42.275Z,5.03
2019-04-29T09:46:18.421Z,5.22
2019-04-29T09:48:51.273Z,5.28
2019-04-29T09:51:27.772Z,6.95
2019-04-29T09:53:58.198Z,5.70
2019-04-29T09:56:29.430Z,6.42
2019-04-29T09:59:18.123Z,4.65
2019-04-29T10:02:00.000Z,6.55
2019-04-29T10:04:32.586Z,7.37
2019-04-29T10:07:04.314Z,5.25
2019-04-29T10:09:35.413Z,6.80
2019-04-29T10:12:09.010Z,6.58
2019-04-29T10:14:40.674Z,6.80
2019-04-29T10:17:22.403Z,8.33
2019-04-29T10:20:01.274Z,3.83
2019-04-29T10:22:32.327Z,8.23
2019-04-29T10:25:04.666Z,4.25
2019-04-29T10:27:35.844Z,3.72
2019-04-29T10:30:08.248Z,6.15
2019-04-29T10:32:42.545Z,5.47
2019-04-29T10:35:14.571Z,6.53
2019-04-29T10:37:47.165Z,4.45
2019-04-29T10:40:28.396Z,5.78
2019-04-29T10:43:17.390Z,5.90
2019-04-29T10:46:06.315Z,10.98
2019-04-29T10:48:45.082Z,4.40
2019-04-29T10:51:17.170Z,6.90
2019-04-29T10:53:51.113Z,6.75
2019-04-29T10:56:22.270Z,7.53
2019-04-29T10:58:54.703Z,7.62
2019-04-29T11:01:30.378Z,8.45
2019-04-29T11:04:02.838Z,5.72
2019-04-29T11:06:35.881Z,4.17
2019-04-29T11:09:14.358Z,7.90
2019-04-29T11:11:47.915Z,7.65
2019-04-29T11:14:24.556Z,6.70
2019-04-29T11:16:54.105Z,5.15
2019-04-29T11:19:25.346Z,7.83
2019-04-29T11:21:56.443Z,7.72
2019-04-29T11:24:44.280Z,6.00
2019-04-29T11:27:25.725Z,4.90
2019-04-29T11:30:02.296Z,5.80
2019-04-29T11:32:34.107Z,4.67
2019-04-29T11:35:08.379Z,8.53
2019-04-29T11:37:40.875Z,5.67
2019-04-29T11:40:12.083Z,7.37
2019-04-29T11:42:43.024Z,8.08
2019-04-29T11:45:14.869Z,5.95
2019-04-29T11:47:45.878Z,7.53
2019-04-29T11:50:34.596Z,6.67
2019-04-29T11:53:06.277Z,6.05
2019-04-29T11:55:37.423Z,4.47
2019-04-29T11:58:26.087Z,7.03
2019-04-29T12:01:03.927Z,7.15
2019-04-29T12:03:39.093Z,6.67
2019-04-29T12:06:16.207Z,6.60
2019-04-29T12:08:48.172Z,6.27
2019-04-29T12:11:19.753Z,8.18
2019-04-29T12:14:08.521Z,7.90
2019-04-29T12:16:41.361Z,4.17
2019-04-29T12:19:17.054Z,5.53
2019-04-29T12:21:50.357Z,6.08
2019-04-29T12:24:21.345Z,5.93
2019-04-29T12:26:52.365Z,6.42
2019-04-29T12:29:23.360Z,9.88
2019-04-29T12:32:12.186Z,5.95
2019-04-29T12:34:50.774Z,5.87
2019-04-29T12:37:25.593Z,6.67
2019-04-29T12:40:01.403Z,6.92
2019-04-29T12:42:50.397Z,6.67
2019-04-29T12:45:38.267Z,6.90
2019-04-29T12:48:23.439Z,2.70
2019-04-29T12:50:42.216Z,6.90
2019-04-29T12:53:13.266Z,5.95
2019-04-29T12:55:49.429Z,7.58
2019-04-29T12:58:19.206Z,7.47
2019-04-29T13:00:59.768Z,5.70
2019-04-29T13:03:25.583Z,6.42
2019-04-29T13:06:14.319Z,6.45
2019-04-29T13:08:53.688Z,10.30
2019-04-29T13:11:37.625Z,10.20
2019-04-29T13:14:01.774Z,6.65
2019-04-29T13:16:34.770Z,7.42
2019-04-29T13:19:13.319Z,7.33
2019-04-29T13:21:45.830Z,5.40
2019-04-29T13:24:24.045Z,6.42
2019-04-29T13:26:50.532Z,3.62
2019-04-29T13:29:27.364Z,5.85
2019-04-29T13:31:54.221Z,5.67
2019-04-29T13:34:30.940Z,5.70
2019-04-29T13:37:07.221Z,8.30
2019-04-29T13:39:39.639Z,6.58
2019-04-29T13:42:12.868Z,4.40
2019-04-29T13:44:42.560Z,5.17
2019-04-29T13:47:17.743Z,6.80
2019-04-29T13:49:50.328Z,5.75
2019-04-29T13:52:21.537Z,5.80
2019-04-29T13:54:53.530Z,4.67
2019-04-29T13:57:24.551Z,6.17
2019-04-29T14:00:13.239Z,5.70
2019-04-29T14:03:07.318Z,7.78
2019-04-29T14:05:37.799Z,9.28
2019-04-29T14:08:09.289Z,7.58
2019-04-29T14:10:46.912Z,5.72
2019-04-29T14:13:20.982Z,6.72
2019-04-29T14:15:50.545Z,7.22
2019-04-29T14:18:23.069Z,5.05
2019-04-29T14:20:54.933Z,6.62
2019-04-29T14:23:27.682Z,6.12
2019-04-29T14:25:58.716Z,7.65
2019-04-29T14:28:29.719Z,9.25
2019-04-29T14:31:00.929Z,5.80
2019-04-29T14:33:33.655Z,6.78
2019-04-29T14:36:06.236Z,4.33
2019-04-29T14:38:40.579Z,8.43
2019-04-29T14:41:14.211Z,5.67
2019-04-29T14:43:55.006Z,6.20
2019-04-29T14:46:28.703Z,5.10
2019-04-29T14:49:10.471Z,3.67
2019-04-29T14:51:41.482Z,7.08
2019-04-29T14:54:12.401Z,8.58
2019-04-29T14:56:45.722Z,7.70
2019-04-29T14:59:16.787Z,5.87
2019-04-29T15:01:55.579Z,4.42
2019-04-29T15:04:28.134Z,5.80
2019-04-29T15:07:01.498Z,6.17
2019-04-29T15:09:45.962Z,5.42
2019-04-29T15:12:10.511Z,9.93
2019-04-29T15:15:01.077Z,10.13
2019-04-29T15:17:35.133Z,8.70
2019-04-29T15:20:09.149Z,4.20
2019-04-29T15:22:42.004Z,13.75
2019-04-29T15:25:16.775Z,6.60
2019-04-29T15:27:46.844Z,5.95
2019-04-29T15:30:18.739Z,6.03
2019-04-29T15:32:53.126Z,6.90
2019-04-29T15:35:24.295Z,7.30
2019-04-29T15:37:55.315Z,5.20
2019-04-29T15:40:28.771Z,5.70
2019-04-29T15:43:01.141Z,7.62
2019-04-29T15:45:34.124Z,6.83
2019-04-29T15:48:05.050Z,13.93
2019-04-29T15:50:37.019Z,11.70
2019-04-29T15:53:08.998Z,7.90
2019-04-29T15:55:41.679Z,5.87
2019-04-29T15:58:13.705Z,7.62
2019-04-29T16:00:44.707Z,6.85
2019-04-29T16:03:17.769Z,6.35
2019-04-29T16:06:11.159Z,8.40
2019-04-29T16:08:30.446Z,6.47
2019-04-29T16:11:03.012Z,11.60
2019-04-29T16:13:34.980Z,7.95
2019-04-29T16:16:06.471Z,8.05
2019-04-29T16:18:37.540Z,9.35
2019-04-29T16:21:08.462Z,7.08
2019-04-29T16:23:41.805Z,9.45
2019-04-29T16:26:12.830Z,11.08
2019-04-29T16:28:44.918Z,5.87
2019-04-29T16:31:15.962Z,8.70
2019-04-29T16:33:54.310Z,7.28
2019-04-29T16:36:19.694Z,7.30
2019-04-29T16:38:53.493Z,10.55
2019-04-29T16:41:35.691Z,13.10
2019-04-29T16:44:34.152Z,7.65
2019-04-29T16:46:47.129Z,9.78
2019-04-29T16:49:21.318Z,8.15
2019-04-29T16:51:55.857Z,9.83
2019-04-29T16:54:28.313Z,8.10
2019-04-29T16:56:59.678Z,7.73
2019-04-29T16:59:31.615Z,9.15
2019-04-29T17:02:04.140Z,9.13
2019-04-29T17:04:35.083Z,8.18
2019-04-29T17:07:13.983Z,10.53
2019-04-29T17:09:43.706Z,4.53
2019-04-29T17:12:14.888Z,7.97
2019-04-29T17:15:04.057Z,7.97
2019-04-29T17:17:29.289Z,9.35
2019-04-29T17:19:56.849Z,10.55
2019-04-29T17:22:27.951Z,7.15
2019-04-29T17:24:59.881Z,7.65
2019-04-29T17:27:41.910Z,8.60
2019-04-29T17:30:11.706Z,11.03
2019-04-29T17:32:48.511Z,8.23
2019-04-29T17:35:21.699Z,8.70
2019-04-29T17:37:50.620Z,8.83
2019-04-29T17:40:21.720Z,12.77
2019-04-29T17:42:54.301Z,10.77
2019-04-29T17:45:43.140Z,10.58
2019-04-29T17:48:21.525Z,7.60
2019-04-29T17:50:54.153Z,10.57
2019-04-29T17:53:26.764Z,8.10
2019-04-29T17:56:02.174Z,8.60
2019-04-29T17:58:51.250Z,10.03
2019-04-29T18:01:23.860Z,9.93
2019-04-29T18:04:01.956Z,14.50
2019-04-29T18:06:34.580Z,12.97
2019-04-29T18:09:25.926Z,11.30
2019-04-29T18:11:57.907Z,8.50
2019-04-29T18:14:36.544Z,8.77
2019-04-29T18:17:02.580Z,8.93
2019-04-29T18:19:39.525Z,9.10
2019-04-29T18:22:29.464Z,8.57
2019-04-29T18:25:05.434Z,7.77
2019-04-29T18:27:38.081Z,13.03
2019-04-29T18:30:12.226Z,11.93
2019-04-29T18:32:46.761Z,10.13
2019-04-29T18:35:17.177Z,9.30
2019-04-29T18:37:48.215Z,7.80
2019-04-29T18:40:19.317Z,11.53
2019-04-29T18:42:51.478Z,14.30
2019-04-29T18:45:29.571Z,11.27
2019-04-29T18:47:59.269Z,11.10
2019-04-29T18:50:34.306Z,7.73
2019-04-29T18:53:03.064Z,9.97
2019-04-29T18:55:35.327Z,10.20
2019-04-29T18:58:08.047Z,14.93
2019-04-29T19:00:39.050Z,14.10
2019-04-29T19:03:12.600Z,12.50
2019-04-29T19:05:46.621Z,10.83
2019-04-29T19:08:23.093Z,11.40
2019-04-29T19:10:52.617Z,9.83
2019-04-29T19:13:26.043Z,11.73
2019-04-29T19:16:09.134Z,8.87
2019-04-29T19:18:30.723Z,9.80
2019-04-29T19:21:01.703Z,8.50
2019-04-29T19:23:32.636Z,10.30
2019-04-29T19:26:04.608Z,12.83
2019-04-29T19:28:36.922Z,10.70
2019-04-29T19:31:11.253Z,13.67
2019-04-29T19:33:46.419Z,13.60
2019-04-29T19:36:21.822Z,9.17
2019-04-29T19:38:51.719Z,9.03
2019-04-29T19:41:27.615Z,10.57
2019-04-29T19:44:01.679Z,15.10
2019-04-29T19:46:38.282Z,17.50
2019-04-29T19:49:09.851Z,20.73
2019-04-29T19:51:39.299Z,18.90
2019-04-29T19:54:11.037Z,21.53
2019-04-29T19:56:42.173Z,17.77
2019-04-29T19:59:16.622Z,21.90
2019-04-29T20:01:49.612Z,20.80
2019-04-29T20:04:22.535Z,21.60
2019-04-29T20:06:58.654Z,20.70
2019-04-29T20:09:28.601Z,18.93
2019-04-29T20:12:11.398Z,17.97
2019-04-29T20:14:36.713Z,18.43
2019-04-29T20:17:26.823Z,18.80
2019-04-29T20:20:08.910Z,20.33
2019-04-29T20:22:43.455Z,23.63
2019-04-29T20:25:13.361Z,25.93
2019-04-29T20:27:45.954Z,16.30
2019-04-29T20:30:20.656Z,17.73
2019-04-29T20:32:50.365Z,14.63
2019-04-29T20:35:22.640Z,12.80
2019-04-29T20:37:56.649Z,15.40
2019-04-29T20:40:35.106Z,20.30
2019-04-29T20:43:00.993Z,16.33
2019-04-29T20:45:32.172Z,17.73
2019-04-29T20:48:03.528Z,16.00
2019-04-29T20:50:35.739Z,18.13
2019-04-29T20:53:30.505Z,18.80
2019-04-29T20:56:09.410Z,17.67
2019-04-29T20:58:33.258Z,22.63
2019-04-29T21:01:10.781Z,18.80
2019-04-29T21:03:40.774Z,25.07
2019-04-29T21:06:12.660Z,28.90
2019-04-29T21:08:50.985Z,31.83
2019-04-29T21:11:21.018Z,28.80
2019-04-29T21:13:57.307Z,25.87
2019-04-29T21:16:30.945Z,22.13
2019-04-29T21:19:08.813Z,21.63
2019-04-29T21:21:41.884Z,16.73
2019-04-29T21:24:17.475Z,20.63
2019-04-29T21:26:45.988Z,22.20
2019-04-29T21:29:19.448Z,18.33
2019-04-29T21:31:58.619Z,19.13
2019-04-29T21:34:25.612Z,20.67
2019-04-29T21:37:05.593Z,19.67
2019-04-29T21:39:36.523Z,17.47
2019-04-29T21:42:18.817Z,20.20
2019-04-29T21:44:49.913Z,31.40
2019-04-29T21:47:25.318Z,19.17
2019-04-29T21:49:57.736Z,20.07
2019-04-29T21:52:28.579Z,18.97
2019-04-29T21:54:59.616Z,20.93
2019-04-29T21:57:32.359Z,18.63
2019-04-29T22:00:05.710Z,15.27
2019-04-29T22:02:36.907Z,19.57
2019-04-29T22:05:09.553Z,16.90
2019-04-29T22:07:44.583Z,16.87
2019-04-29T22:10:15.279Z,16.83
2019-04-29T22:12:46.570Z,16.63
2019-04-29T22:15:29.269Z,20.93
2019-04-29T22:17:56.595Z,20.13
2019-04-29T22:20:23.403Z,18.90
2019-04-29T22:22:55.925Z,15.47
2019-04-29T22:25:28.517Z,14.03
2019-04-29T22:28:01.061Z,15.53
2019-04-29T22:30:35.409Z,16.43
2019-04-29T22:33:07.349Z,14.13
2019-04-29T22:35:40.759Z,14.57
2019-04-29T22:38:12.659Z,19.17
2019-04-29T22:40:45.224Z,16.70
2019-04-29T22:43:19.475Z,17.40
2019-04-29T22:45:52.048Z,19.13
2019-04-29T22:48:24.894Z,20.50
2019-04-29T22:50:56.069Z,18.17
2019-04-29T22:53:27.343Z,15.63
2019-04-29T22:55:58.436Z,19.37
2019-04-29T22:58:29.512Z,15.93
2019-04-29T23:01:02.493Z,14.33
2019-04-29T23:03:38.745Z,18.30
2019-04-29T23:06:11.725Z,14.23
2019-04-29T23:08:47.965Z,14.80
2019-04-29T23:11:19.009Z,17.40
2019-04-29T23:13:50.279Z,11.53
2019-04-29T23:16:24.370Z,15.70
2019-04-29T23:18:55.573Z,14.47
2019-04-29T23:21:43.236Z,13.63
2019-04-29T23:24:13.172Z,13.63
2019-04-29T23:26:44.909Z,11.67
2019-04-29T23:29:16.368Z,16.63
2019-04-29T23:31:47.427Z,16.20
2019-04-29T23:34:20.192Z,15.53
2019-04-29T23:36:51.243Z,18.07
2019-04-29T23:39:22.440Z,18.77
2019-04-29T23:41:55.366Z,19.87
2019-04-29T23:44:26.288Z,15.03
2019-04-29T23:46:58.789Z,16.03
2019-04-29T23:49:29.896Z,17.80
2019-04-29T23:52:00.973Z,20.67
2019-04-29T23:54:43.749Z,15.37
2019-04-29T23:57:07.252Z,14.40
2019-04-29T23:59:39.885Z,12.23
